sensor_id;sensor_type;location;lat;lon;timestamp;P1;durP1;ratioP1;P2;durP2;ratioP2
76589;SDS011;65471;55.908;37.880;2023-05-10T00:01:41;63.28;;;18.40;;
76589;SDS011;65471;55.908;37.880;2023-05-10T00:04:07;70.72;;;19.35;;
76589;SDS011;65471;55.908;37.880;2023-05-10T00:06:34;71.18;;;19.83;;
76589;SDS011;65471;55.908;37.880;2023-05-10T00:09:01;64.65;;;19.17;;
76589;SDS011;65471;55.908;37.880;2023-05-10T00:11:29;58.05;;;19.80;;
76589;SDS011;65471;55.908;37.880;2023-05-10T00:13:56;53.88;;;18.08;;
76589;SDS011;65471;55.908;37.880;2023-05-10T00:16:25;57.50;;;18.45;;
76589;SDS011;65471;55.908;37.880;2023-05-10T00:18:52;65.75;;;18.25;;
76589;SDS011;65471;55.908;37.880;2023-05-10T00:21:19;87.38;;;20.30;;
76589;SDS011;65471;55.908;37.880;2023-05-10T00:23:46;78.03;;;18.73;;
76589;SDS011;65471;55.908;37.880;2023-05-10T00:26:13;60.30;;;20.77;;
76589;SDS011;65471;55.908;37.880;2023-05-10T00:28:40;62.97;;;17.63;;
76589;SDS011;65471;55.908;37.880;2023-05-10T00:31:06;72.72;;;19.63;;
76589;SDS011;65471;55.908;37.880;2023-05-10T00:33:33;55.60;;;18.80;;
76589;SDS011;65471;55.908;37.880;2023-05-10T00:36:00;62.42;;;18.08;;
76589;SDS011;65471;55.908;37.880;2023-05-10T00:38:27;71.85;;;20.00;;
76589;SDS011;65471;55.908;37.880;2023-05-10T00:40:54;68.10;;;20.15;;
76589;SDS011;65471;55.908;37.880;2023-05-10T00:43:21;69.53;;;19.25;;
76589;SDS011;65471;55.908;37.880;2023-05-10T00:45:47;72.70;;;20.52;;
76589;SDS011;65471;55.908;37.880;2023-05-10T00:48:15;55.38;;;18.73;;
76589;SDS011;65471;55.908;37.880;2023-05-10T00:50:41;64.43;;;18.40;;
76589;SDS011;65471;55.908;37.880;2023-05-10T00:53:08;51.67;;;18.52;;
76589;SDS011;65471;55.908;37.880;2023-05-10T00:55:36;50.53;;;17.83;;
76589;SDS011;65471;55.908;37.880;2023-05-10T00:58:04;53.08;;;18.13;;
76589;SDS011;65471;55.908;37.880;2023-05-10T01:00:32;55.13;;;16.35;;
76589;SDS011;65471;55.908;37.880;2023-05-10T01:02:59;50.30;;;15.68;;
76589;SDS011;65471;55.908;37.880;2023-05-10T01:05:27;44.90;;;15.55;;
76589;SDS011;65471;55.908;37.880;2023-05-10T01:07:54;51.15;;;15.65;;
76589;SDS011;65471;55.908;37.880;2023-05-10T01:10:22;44.67;;;15.07;;
76589;SDS011;65471;55.908;37.880;2023-05-10T01:12:49;42.15;;;14.65;;
76589;SDS011;65471;55.908;37.880;2023-05-10T01:15:16;34.70;;;13.10;;
76589;SDS011;65471;55.908;37.880;2023-05-10T01:17:44;36.70;;;12.40;;
76589;SDS011;65471;55.908;37.880;2023-05-10T01:20:12;35.58;;;13.77;;
76589;SDS011;65471;55.908;37.880;2023-05-10T01:25:36;33.42;;;12.70;;
76589;SDS011;65471;55.908;37.880;2023-05-10T01:28:26;36.00;;;13.40;;
76589;SDS011;65471;55.908;37.880;2023-05-10T01:41:25;37.95;;;14.05;;
76589;SDS011;65471;55.908;37.880;2023-05-10T01:44:12;35.47;;;13.95;;
76589;SDS011;65471;55.908;37.880;2023-05-10T01:46:45;51.30;;;14.63;;
76589;SDS011;65471;55.908;37.880;2023-05-10T01:49:25;46.25;;;14.55;;
76589;SDS011;65471;55.908;37.880;2023-05-10T01:51:57;40.03;;;14.00;;
76589;SDS011;65471;55.908;37.880;2023-05-10T01:54:27;32.28;;;13.63;;
76589;SDS011;65471;55.908;37.880;2023-05-10T01:56:56;48.58;;;14.70;;
76589;SDS011;65471;55.908;37.880;2023-05-10T01:59:28;40.67;;;12.68;;
76589;SDS011;65471;55.908;37.880;2023-05-10T02:01:58;45.33;;;13.52;;
76589;SDS011;65471;55.908;37.880;2023-05-10T02:04:27;51.40;;;12.40;;
76589;SDS011;65471;55.908;37.880;2023-05-10T02:06:54;36.47;;;11.35;;
76589;SDS011;65471;55.908;37.880;2023-05-10T02:09:22;34.38;;;12.35;;
76589;SDS011;65471;55.908;37.880;2023-05-10T02:11:51;36.55;;;11.70;;
76589;SDS011;65471;55.908;37.880;2023-05-10T02:14:20;31.17;;;11.40;;
76589;SDS011;65471;55.908;37.880;2023-05-10T02:16:48;33.97;;;11.97;;
76589;SDS011;65471;55.908;37.880;2023-05-10T02:19:17;40.92;;;12.88;;
76589;SDS011;65471;55.908;37.880;2023-05-10T02:22:06;39.45;;;11.95;;
76589;SDS011;65471;55.908;37.880;2023-05-10T02:24:35;33.22;;;12.40;;
76589;SDS011;65471;55.908;37.880;2023-05-10T02:27:03;42.63;;;13.15;;
76589;SDS011;65471;55.908;37.880;2023-05-10T02:29:31;32.08;;;11.40;;
76589;SDS011;65471;55.908;37.880;2023-05-10T02:31:59;39.75;;;12.65;;
76589;SDS011;65471;55.908;37.880;2023-05-10T02:34:28;33.55;;;12.50;;
76589;SDS011;65471;55.908;37.880;2023-05-10T02:36:56;33.17;;;13.18;;
76589;SDS011;65471;55.908;37.880;2023-05-10T02:39:24;30.40;;;13.02;;
76589;SDS011;65471;55.908;37.880;2023-05-10T02:41:54;26.77;;;12.48;;
76589;SDS011;65471;55.908;37.880;2023-05-10T02:44:23;43.05;;;13.45;;
76589;SDS011;65471;55.908;37.880;2023-05-10T02:46:55;41.60;;;13.00;;
76589;SDS011;65471;55.908;37.880;2023-05-10T02:49:22;38.88;;;13.32;;
76589;SDS011;65471;55.908;37.880;2023-05-10T02:51:50;33.30;;;12.93;;
76589;SDS011;65471;55.908;37.880;2023-05-10T02:54:28;37.97;;;12.57;;
76589;SDS011;65471;55.908;37.880;2023-05-10T02:56:58;43.92;;;13.02;;
76589;SDS011;65471;55.908;37.880;2023-05-10T02:59:26;36.47;;;12.85;;
76589;SDS011;65471;55.908;37.880;2023-05-10T03:01:53;31.90;;;12.57;;
76589;SDS011;65471;55.908;37.880;2023-05-10T03:04:20;40.08;;;13.07;;
76589;SDS011;65471;55.908;37.880;2023-05-10T03:06:47;29.10;;;11.43;;
76589;SDS011;65471;55.908;37.880;2023-05-10T03:09:14;29.80;;;13.10;;
76589;SDS011;65471;55.908;37.880;2023-05-10T03:17:17;29.10;;;12.35;;
76589;SDS011;65471;55.908;37.880;2023-05-10T03:19:57;31.65;;;11.55;;
76589;SDS011;65471;55.908;37.880;2023-05-10T03:22:34;42.03;;;13.25;;
76589;SDS011;65471;55.908;37.880;2023-05-10T03:25:14;34.10;;;13.65;;
76589;SDS011;65471;55.908;37.880;2023-05-10T03:27:43;48.17;;;13.13;;
76589;SDS011;65471;55.908;37.880;2023-05-10T03:30:12;48.75;;;11.70;;
76589;SDS011;65471;55.908;37.880;2023-05-10T03:32:40;35.85;;;11.82;;
76589;SDS011;65471;55.908;37.880;2023-05-10T03:35:10;43.17;;;12.85;;
76589;SDS011;65471;55.908;37.880;2023-05-10T03:37:39;34.95;;;11.82;;
76589;SDS011;65471;55.908;37.880;2023-05-10T03:40:06;34.38;;;11.65;;
76589;SDS011;65471;55.908;37.880;2023-05-10T03:42:33;32.97;;;11.90;;
76589;SDS011;65471;55.908;37.880;2023-05-10T03:45:00;33.67;;;13.00;;
76589;SDS011;65471;55.908;37.880;2023-05-10T03:47:29;32.53;;;12.30;;
76589;SDS011;65471;55.908;37.880;2023-05-10T03:49:56;32.63;;;11.77;;
76589;SDS011;65471;55.908;37.880;2023-05-10T03:52:23;28.13;;;11.35;;
76589;SDS011;65471;55.908;37.880;2023-05-10T03:54:49;37.58;;;12.52;;
76589;SDS011;65471;55.908;37.880;2023-05-10T03:57:16;38.33;;;12.65;;
76589;SDS011;65471;55.908;37.880;2023-05-10T03:59:43;42.95;;;12.18;;
76589;SDS011;65471;55.908;37.880;2023-05-10T04:02:10;28.77;;;11.98;;
76589;SDS011;65471;55.908;37.880;2023-05-10T04:04:37;38.78;;;12.43;;
76589;SDS011;65471;55.908;37.880;2023-05-10T04:07:03;23.05;;;11.68;;
76589;SDS011;65471;55.908;37.880;2023-05-10T04:09:30;39.58;;;11.80;;
76589;SDS011;65471;55.908;37.880;2023-05-10T04:11:58;46.58;;;12.65;;
76589;SDS011;65471;55.908;37.880;2023-05-10T04:14:25;46.50;;;11.90;;
76589;SDS011;65471;55.908;37.880;2023-05-10T04:16:53;47.22;;;13.07;;
76589;SDS011;65471;55.908;37.880;2023-05-10T04:19:20;43.53;;;12.55;;
76589;SDS011;65471;55.908;37.880;2023-05-10T04:21:48;44.30;;;12.50;;
76589;SDS011;65471;55.908;37.880;2023-05-10T04:24:15;36.42;;;13.32;;
76589;SDS011;65471;55.908;37.880;2023-05-10T04:26:42;33.50;;;13.55;;
76589;SDS011;65471;55.908;37.880;2023-05-10T04:29:08;38.13;;;12.45;;
76589;SDS011;65471;55.908;37.880;2023-05-10T04:31:35;48.92;;;12.32;;
76589;SDS011;65471;55.908;37.880;2023-05-10T04:34:03;33.90;;;12.23;;
76589;SDS011;65471;55.908;37.880;2023-05-10T04:36:30;40.70;;;13.38;;
76589;SDS011;65471;55.908;37.880;2023-05-10T04:38:58;45.67;;;11.65;;
76589;SDS011;65471;55.908;37.880;2023-05-10T04:41:25;33.70;;;12.50;;
76589;SDS011;65471;55.908;37.880;2023-05-10T04:43:52;30.00;;;11.18;;
76589;SDS011;65471;55.908;37.880;2023-05-10T04:46:19;33.47;;;11.43;;
76589;SDS011;65471;55.908;37.880;2023-05-10T04:48:46;30.90;;;10.63;;
76589;SDS011;65471;55.908;37.880;2023-05-10T04:51:13;51.65;;;10.93;;
76589;SDS011;65471;55.908;37.880;2023-05-10T04:53:39;32.80;;;10.13;;
76589;SDS011;65471;55.908;37.880;2023-05-10T04:56:11;50.58;;;9.70;;
76589;SDS011;65471;55.908;37.880;2023-05-10T04:58:38;42.38;;;10.63;;
76589;SDS011;65471;55.908;37.880;2023-05-10T05:01:05;43.15;;;10.02;;
76589;SDS011;65471;55.908;37.880;2023-05-10T05:03:33;34.03;;;9.80;;
76589;SDS011;65471;55.908;37.880;2023-05-10T05:06:00;39.20;;;10.20;;
76589;SDS011;65471;55.908;37.880;2023-05-10T05:08:27;51.30;;;10.75;;
76589;SDS011;65471;55.908;37.880;2023-05-10T05:10:54;31.17;;;9.27;;
76589;SDS011;65471;55.908;37.880;2023-05-10T05:13:21;45.40;;;8.75;;
76589;SDS011;65471;55.908;37.880;2023-05-10T05:15:48;40.78;;;8.73;;
76589;SDS011;65471;55.908;37.880;2023-05-10T05:18:15;32.30;;;9.13;;
76589;SDS011;65471;55.908;37.880;2023-05-10T05:20:42;23.23;;;7.72;;
76589;SDS011;65471;55.908;37.880;2023-05-10T05:23:08;41.55;;;7.93;;
76589;SDS011;65471;55.908;37.880;2023-05-10T05:25:35;39.05;;;8.57;;
76589;SDS011;65471;55.908;37.880;2023-05-10T05:28:02;39.92;;;7.43;;
76589;SDS011;65471;55.908;37.880;2023-05-10T05:30:29;27.98;;;8.48;;
76589;SDS011;65471;55.908;37.880;2023-05-10T05:32:56;28.30;;;7.13;;
76589;SDS011;65471;55.908;37.880;2023-05-10T05:35:23;55.75;;;8.00;;
76589;SDS011;65471;55.908;37.880;2023-05-10T05:37:50;31.98;;;7.93;;
76589;SDS011;65471;55.908;37.880;2023-05-10T05:40:17;27.63;;;6.97;;
76589;SDS011;65471;55.908;37.880;2023-05-10T05:42:43;23.85;;;5.82;;
76589;SDS011;65471;55.908;37.880;2023-05-10T05:45:11;16.38;;;5.03;;
76589;SDS011;65471;55.908;37.880;2023-05-10T05:47:42;14.68;;;4.78;;
76589;SDS011;65471;55.908;37.880;2023-05-10T05:50:09;11.57;;;4.38;;
76589;SDS011;65471;55.908;37.880;2023-05-10T05:52:36;19.00;;;4.70;;
76589;SDS011;65471;55.908;37.880;2023-05-10T05:55:03;11.00;;;4.00;;
76589;SDS011;65471;55.908;37.880;2023-05-10T05:57:30;23.15;;;4.95;;
76589;SDS011;65471;55.908;37.880;2023-05-10T05:59:57;23.13;;;5.18;;
76589;SDS011;65471;55.908;37.880;2023-05-10T06:02:23;21.20;;;4.95;;
76589;SDS011;65471;55.908;37.880;2023-05-10T06:04:50;8.27;;;4.22;;
76589;SDS011;65471;55.908;37.880;2023-05-10T06:07:17;34.00;;;5.07;;
76589;SDS011;65471;55.908;37.880;2023-05-10T06:09:44;52.58;;;4.60;;
76589;SDS011;65471;55.908;37.880;2023-05-10T06:12:11;25.38;;;4.70;;
76589;SDS011;65471;55.908;37.880;2023-05-10T06:14:38;23.50;;;4.72;;
76589;SDS011;65471;55.908;37.880;2023-05-10T06:17:05;33.88;;;4.78;;
76589;SDS011;65471;55.908;37.880;2023-05-10T06:19:33;43.50;;;4.60;;
76589;SDS011;65471;55.908;37.880;2023-05-10T06:21:59;44.92;;;4.72;;
76589;SDS011;65471;55.908;37.880;2023-05-10T06:24:26;17.90;;;4.75;;
76589;SDS011;65471;55.908;37.880;2023-05-10T06:26:53;24.60;;;5.00;;
76589;SDS011;65471;55.908;37.880;2023-05-10T06:29:20;27.50;;;5.07;;
76589;SDS011;65471;55.908;37.880;2023-05-10T06:31:47;16.48;;;4.93;;
76589;SDS011;65471;55.908;37.880;2023-05-10T06:34:14;11.73;;;4.32;;
76589;SDS011;65471;55.908;37.880;2023-05-10T06:36:41;12.55;;;4.00;;
76589;SDS011;65471;55.908;37.880;2023-05-10T06:39:08;17.33;;;4.60;;
76589;SDS011;65471;55.908;37.880;2023-05-10T06:41:35;21.33;;;4.70;;
76589;SDS011;65471;55.908;37.880;2023-05-10T06:44:02;15.93;;;4.35;;
76589;SDS011;65471;55.908;37.880;2023-05-10T06:46:30;21.50;;;4.43;;
76589;SDS011;65471;55.908;37.880;2023-05-10T06:48:56;15.30;;;4.50;;
76589;SDS011;65471;55.908;37.880;2023-05-10T06:51:23;22.80;;;4.88;;
76589;SDS011;65471;55.908;37.880;2023-05-10T06:53:50;22.50;;;4.90;;
76589;SDS011;65471;55.908;37.880;2023-05-10T06:56:18;18.63;;;4.45;;
76589;SDS011;65471;55.908;37.880;2023-05-10T06:58:47;59.58;;;5.32;;
76589;SDS011;65471;55.908;37.880;2023-05-10T07:01:14;68.63;;;5.53;;
76589;SDS011;65471;55.908;37.880;2023-05-10T07:03:42;111.72;;;5.68;;
76589;SDS011;65471;55.908;37.880;2023-05-10T07:06:08;58.17;;;4.93;;
76589;SDS011;65471;55.908;37.880;2023-05-10T07:08:55;41.75;;;5.40;;
76589;SDS011;65471;55.908;37.880;2023-05-10T07:11:22;21.25;;;5.03;;
76589;SDS011;65471;55.908;37.880;2023-05-10T07:13:48;22.73;;;5.22;;
76589;SDS011;65471;55.908;37.880;2023-05-10T07:16:15;25.48;;;4.88;;
76589;SDS011;65471;55.908;37.880;2023-05-10T07:18:42;18.95;;;4.47;;
76589;SDS011;65471;55.908;37.880;2023-05-10T07:21:09;23.42;;;4.53;;
76589;SDS011;65471;55.908;37.880;2023-05-10T07:23:36;24.92;;;4.72;;
76589;SDS011;65471;55.908;37.880;2023-05-10T07:26:03;16.30;;;4.40;;
76589;SDS011;65471;55.908;37.880;2023-05-10T07:28:29;15.48;;;4.40;;
76589;SDS011;65471;55.908;37.880;2023-05-10T07:30:56;6.18;;;4.57;;
76589;SDS011;65471;55.908;37.880;2023-05-10T07:33:23;8.68;;;4.05;;
76589;SDS011;65471;55.908;37.880;2023-05-10T07:35:50;20.73;;;3.83;;
76589;SDS011;65471;55.908;37.880;2023-05-10T07:38:17;9.52;;;4.38;;
76589;SDS011;65471;55.908;37.880;2023-05-10T07:40:43;14.50;;;4.65;;
76589;SDS011;65471;55.908;37.880;2023-05-10T07:43:10;24.02;;;4.18;;
76589;SDS011;65471;55.908;37.880;2023-05-10T07:45:37;12.98;;;4.22;;
76589;SDS011;65471;55.908;37.880;2023-05-10T07:48:04;21.88;;;4.10;;
76589;SDS011;65471;55.908;37.880;2023-05-10T07:50:31;23.70;;;4.88;;
76589;SDS011;65471;55.908;37.880;2023-05-10T07:52:57;23.63;;;4.70;;
76589;SDS011;65471;55.908;37.880;2023-05-10T07:55:24;13.95;;;3.90;;
76589;SDS011;65471;55.908;37.880;2023-05-10T07:57:51;11.43;;;4.13;;
76589;SDS011;65471;55.908;37.880;2023-05-10T08:00:18;7.60;;;4.15;;
76589;SDS011;65471;55.908;37.880;2023-05-10T08:02:47;8.38;;;4.07;;
76589;SDS011;65471;55.908;37.880;2023-05-10T08:05:14;11.32;;;4.07;;
76589;SDS011;65471;55.908;37.880;2023-05-10T08:07:42;9.65;;;3.60;;
76589;SDS011;65471;55.908;37.880;2023-05-10T08:10:09;5.30;;;3.65;;
76589;SDS011;65471;55.908;37.880;2023-05-10T08:12:38;5.63;;;3.47;;
76589;SDS011;65471;55.908;37.880;2023-05-10T08:15:05;6.90;;;3.42;;
76589;SDS011;65471;55.908;37.880;2023-05-10T08:17:33;22.83;;;3.45;;
76589;SDS011;65471;55.908;37.880;2023-05-10T08:20:00;15.18;;;4.13;;
76589;SDS011;65471;55.908;37.880;2023-05-10T08:24:55;23.25;;;3.67;;
76589;SDS011;65471;55.908;37.880;2023-05-10T08:27:22;3.92;;;3.55;;
76589;SDS011;65471;55.908;37.880;2023-05-10T08:29:49;6.82;;;3.42;;
76589;SDS011;65471;55.908;37.880;2023-05-10T08:32:16;6.95;;;3.78;;
76589;SDS011;65471;55.908;37.880;2023-05-10T08:34:43;6.53;;;3.70;;
76589;SDS011;65471;55.908;37.880;2023-05-10T08:37:10;4.55;;;3.30;;
76589;SDS011;65471;55.908;37.880;2023-05-10T08:39:39;21.45;;;3.80;;
76589;SDS011;65471;55.908;37.880;2023-05-10T08:42:06;8.65;;;3.15;;
76589;SDS011;65471;55.908;37.880;2023-05-10T08:44:35;8.48;;;3.35;;
76589;SDS011;65471;55.908;37.880;2023-05-10T08:47:06;17.58;;;3.42;;
76589;SDS011;65471;55.908;37.880;2023-05-10T08:49:33;7.95;;;3.03;;
76589;SDS011;65471;55.908;37.880;2023-05-10T08:52:02;8.75;;;2.97;;
76589;SDS011;65471;55.908;37.880;2023-05-10T08:54:33;6.43;;;2.97;;
76589;SDS011;65471;55.908;37.880;2023-05-10T08:57:01;2.88;;;2.53;;
76589;SDS011;65471;55.908;37.880;2023-05-10T08:59:28;3.17;;;2.17;;
76589;SDS011;65471;55.908;37.880;2023-05-10T09:01:58;17.38;;;3.70;;
76589;SDS011;65471;55.908;37.880;2023-05-10T09:04:25;13.18;;;2.95;;
76589;SDS011;65471;55.908;37.880;2023-05-10T09:06:53;5.25;;;2.97;;
76589;SDS011;65471;55.908;37.880;2023-05-10T09:09:20;8.18;;;2.67;;
76589;SDS011;65471;55.908;37.880;2023-05-10T09:11:48;4.45;;;2.35;;
76589;SDS011;65471;55.908;37.880;2023-05-10T09:14:15;5.32;;;2.67;;
76589;SDS011;65471;55.908;37.880;2023-05-10T09:16:43;10.98;;;2.78;;
76589;SDS011;65471;55.908;37.880;2023-05-10T09:19:10;8.38;;;2.78;;
76589;SDS011;65471;55.908;37.880;2023-05-10T09:21:37;4.60;;;2.90;;
76589;SDS011;65471;55.908;37.880;2023-05-10T09:24:07;2.78;;;2.58;;
76589;SDS011;65471;55.908;37.880;2023-05-10T09:26:35;8.48;;;2.58;;
76589;SDS011;65471;55.908;37.880;2023-05-10T09:29:12;5.03;;;2.90;;
76589;SDS011;65471;55.908;37.880;2023-05-10T09:31:49;6.15;;;2.92;;
76589;SDS011;65471;55.908;37.880;2023-05-10T09:34:18;9.07;;;3.22;;
76589;SDS011;65471;55.908;37.880;2023-05-10T09:36:50;3.10;;;2.53;;
76589;SDS011;65471;55.908;37.880;2023-05-10T09:39:18;6.85;;;3.17;;
76589;SDS011;65471;55.908;37.880;2023-05-10T09:41:45;9.85;;;3.38;;
76589;SDS011;65471;55.908;37.880;2023-05-10T09:44:14;8.00;;;3.03;;
76589;SDS011;65471;55.908;37.880;2023-05-10T09:46:48;16.45;;;3.30;;
76589;SDS011;65471;55.908;37.880;2023-05-10T09:49:16;3.55;;;3.05;;
76589;SDS011;65471;55.908;37.880;2023-05-10T09:51:43;4.75;;;2.70;;
76589;SDS011;65471;55.908;37.880;2023-05-10T09:54:11;6.57;;;3.15;;
76589;SDS011;65471;55.908;37.880;2023-05-10T09:56:38;6.03;;;2.83;;
76589;SDS011;65471;55.908;37.880;2023-05-10T10:01:37;4.03;;;3.53;;
76589;SDS011;65471;55.908;37.880;2023-05-10T10:04:05;52.85;;;3.90;;
76589;SDS011;65471;55.908;37.880;2023-05-10T10:06:37;4.22;;;3.05;;
76589;SDS011;65471;55.908;37.880;2023-05-10T10:09:08;25.77;;;3.60;;
76589;SDS011;65471;55.908;37.880;2023-05-10T10:11:36;36.13;;;3.38;;
76589;SDS011;65471;55.908;37.880;2023-05-10T10:14:04;8.68;;;3.30;;
76589;SDS011;65471;55.908;37.880;2023-05-10T10:16:31;6.40;;;3.23;;
76589;SDS011;65471;55.908;37.880;2023-05-10T10:18:58;6.65;;;3.08;;
76589;SDS011;65471;55.908;37.880;2023-05-10T10:21:25;3.38;;;3.08;;
76589;SDS011;65471;55.908;37.880;2023-05-10T10:23:53;3.55;;;2.67;;
76589;SDS011;65471;55.908;37.880;2023-05-10T10:26:20;8.73;;;2.70;;
76589;SDS011;65471;55.908;37.880;2023-05-10T10:31:28;6.90;;;2.80;;
76589;SDS011;65471;55.908;37.880;2023-05-10T10:34:06;6.82;;;3.50;;
76589;SDS011;65471;55.908;37.880;2023-05-10T10:36:47;12.43;;;3.20;;
76589;SDS011;65471;55.908;37.880;2023-05-10T10:39:14;3.40;;;2.80;;
76589;SDS011;65471;55.908;37.880;2023-05-10T10:49:33;14.93;;;3.05;;
76589;SDS011;65471;55.908;37.880;2023-05-10T10:55:28;7.95;;;3.13;;
76589;SDS011;65471;55.908;37.880;2023-05-10T10:57:50;4.30;;;3.53;;
76589;SDS011;65471;55.908;37.880;2023-05-10T11:02:55;3.33;;;3.13;;
76589;SDS011;65471;55.908;37.880;2023-05-10T11:05:46;19.73;;;3.08;;
76589;SDS011;65471;55.908;37.880;2023-05-10T11:13:34;4.40;;;3.25;;
76589;SDS011;65471;55.908;37.880;2023-05-10T11:18:40;5.38;;;3.05;;
76589;SDS011;65471;55.908;37.880;2023-05-10T11:21:19;11.02;;;3.40;;
76589;SDS011;65471;55.908;37.880;2023-05-10T11:26:14;16.63;;;3.25;;
76589;SDS011;65471;55.908;37.880;2023-05-10T11:28:45;5.50;;;3.40;;
76589;SDS011;65471;55.908;37.880;2023-05-10T11:31:14;8.93;;;3.17;;
76589;SDS011;65471;55.908;37.880;2023-05-10T11:33:49;3.70;;;3.40;;
76589;SDS011;65471;55.908;37.880;2023-05-10T11:36:18;9.90;;;2.80;;
76589;SDS011;65471;55.908;37.880;2023-05-10T11:38:47;13.23;;;3.10;;
76589;SDS011;65471;55.908;37.880;2023-05-10T11:41:16;7.45;;;3.42;;
76589;SDS011;65471;55.908;37.880;2023-05-10T11:43:46;3.72;;;3.22;;
76589;SDS011;65471;55.908;37.880;2023-05-10T11:46:15;7.88;;;3.15;;
76589;SDS011;65471;55.908;37.880;2023-05-10T11:48:47;8.10;;;3.20;;
76589;SDS011;65471;55.908;37.880;2023-05-10T11:51:20;4.50;;;3.10;;
76589;SDS011;65471;55.908;37.880;2023-05-10T11:53:49;5.28;;;3.63;;
76589;SDS011;65471;55.908;37.880;2023-05-10T11:56:18;9.60;;;3.58;;
76589;SDS011;65471;55.908;37.880;2023-05-10T11:58:52;8.18;;;3.20;;
76589;SDS011;65471;55.908;37.880;2023-05-10T12:01:24;3.97;;;3.55;;
76589;SDS011;65471;55.908;37.880;2023-05-10T12:03:51;10.70;;;3.33;;
76589;SDS011;65471;55.908;37.880;2023-05-10T12:06:20;20.67;;;3.53;;
76589;SDS011;65471;55.908;37.880;2023-05-10T12:08:48;3.43;;;3.13;;
76589;SDS011;65471;55.908;37.880;2023-05-10T12:11:19;13.38;;;3.33;;
76589;SDS011;65471;55.908;37.880;2023-05-10T12:13:48;16.10;;;3.47;;
76589;SDS011;65471;55.908;37.880;2023-05-10T12:16:17;29.50;;;3.00;;
76589;SDS011;65471;55.908;37.880;2023-05-10T12:18:48;34.65;;;3.65;;
76589;SDS011;65471;55.908;37.880;2023-05-10T12:21:18;16.23;;;3.60;;
76589;SDS011;65471;55.908;37.880;2023-05-10T12:26:13;69.10;;;4.75;;
76589;SDS011;65471;55.908;37.880;2023-05-10T12:28:40;24.27;;;4.28;;
76589;SDS011;65471;55.908;37.880;2023-05-10T12:31:07;21.42;;;3.28;;
76589;SDS011;65471;55.908;37.880;2023-05-10T12:33:39;3.78;;;3.47;;
76589;SDS011;65471;55.908;37.880;2023-05-10T12:36:11;14.43;;;3.40;;
76589;SDS011;65471;55.908;37.880;2023-05-10T12:38:41;18.38;;;4.07;;
76589;SDS011;65471;55.908;37.880;2023-05-10T12:41:16;10.60;;;3.40;;
76589;SDS011;65471;55.908;37.880;2023-05-10T12:46:12;6.05;;;3.20;;
76589;SDS011;65471;55.908;37.880;2023-05-10T12:48:41;10.48;;;3.30;;
76589;SDS011;65471;55.908;37.880;2023-05-10T12:51:09;30.08;;;3.78;;
76589;SDS011;65471;55.908;37.880;2023-05-10T12:53:38;15.80;;;3.50;;
76589;SDS011;65471;55.908;37.880;2023-05-10T12:56:09;14.70;;;3.40;;
76589;SDS011;65471;55.908;37.880;2023-05-10T12:58:36;30.92;;;3.60;;
76589;SDS011;65471;55.908;37.880;2023-05-10T13:01:04;10.40;;;3.30;;
76589;SDS011;65471;55.908;37.880;2023-05-10T13:03:32;27.90;;;3.40;;
76589;SDS011;65471;55.908;37.880;2023-05-10T13:05:58;19.45;;;3.53;;
76589;SDS011;65471;55.908;37.880;2023-05-10T13:08:25;7.40;;;3.25;;
76589;SDS011;65471;55.908;37.880;2023-05-10T13:10:52;16.13;;;3.17;;
76589;SDS011;65471;55.908;37.880;2023-05-10T13:13:19;4.28;;;3.30;;
76589;SDS011;65471;55.908;37.880;2023-05-10T13:15:46;4.30;;;3.28;;
76589;SDS011;65471;55.908;37.880;2023-05-10T13:18:13;16.20;;;3.35;;
76589;SDS011;65471;55.908;37.880;2023-05-10T13:20:39;3.88;;;3.42;;
76589;SDS011;65471;55.908;37.880;2023-05-10T13:23:06;15.15;;;4.80;;
76589;SDS011;65471;55.908;37.880;2023-05-10T13:25:33;11.80;;;3.38;;
76589;SDS011;65471;55.908;37.880;2023-05-10T13:28:00;3.70;;;3.38;;
76589;SDS011;65471;55.908;37.880;2023-05-10T13:30:28;6.45;;;4.38;;
76589;SDS011;65471;55.908;37.880;2023-05-10T13:32:55;14.02;;;3.60;;
76589;SDS011;65471;55.908;37.880;2023-05-10T13:35:22;6.75;;;3.72;;
76589;SDS011;65471;55.908;37.880;2023-05-10T13:37:48;4.95;;;3.25;;
76589;SDS011;65471;55.908;37.880;2023-05-10T13:40:16;3.50;;;3.20;;
76589;SDS011;65471;55.908;37.880;2023-05-10T13:42:43;16.02;;;3.20;;
76589;SDS011;65471;55.908;37.880;2023-05-10T13:45:10;15.27;;;3.22;;
76589;SDS011;65471;55.908;37.880;2023-05-10T13:47:38;19.48;;;3.30;;
76589;SDS011;65471;55.908;37.880;2023-05-10T13:50:05;22.80;;;3.35;;
76589;SDS011;65471;55.908;37.880;2023-05-10T13:52:33;8.82;;;3.00;;
76589;SDS011;65471;55.908;37.880;2023-05-10T13:54:59;6.10;;;3.30;;
76589;SDS011;65471;55.908;37.880;2023-05-10T13:57:29;3.40;;;3.10;;
76589;SDS011;65471;55.908;37.880;2023-05-10T13:59:56;14.10;;;3.28;;
76589;SDS011;65471;55.908;37.880;2023-05-10T14:02:23;5.47;;;3.40;;
76589;SDS011;65471;55.908;37.880;2023-05-10T14:04:51;10.40;;;3.33;;
76589;SDS011;65471;55.908;37.880;2023-05-10T14:07:18;8.82;;;2.85;;
76589;SDS011;65471;55.908;37.880;2023-05-10T14:09:44;9.80;;;3.17;;
76589;SDS011;65471;55.908;37.880;2023-05-10T14:12:11;24.75;;;3.50;;
76589;SDS011;65471;55.908;37.880;2023-05-10T14:14:38;20.92;;;3.50;;
76589;SDS011;65471;55.908;37.880;2023-05-10T14:17:05;11.80;;;3.40;;
76589;SDS011;65471;55.908;37.880;2023-05-10T14:19:34;15.88;;;4.07;;
76589;SDS011;65471;55.908;37.880;2023-05-10T14:22:01;22.52;;;3.80;;
76589;SDS011;65471;55.908;37.880;2023-05-10T14:24:27;25.73;;;3.80;;
76589;SDS011;65471;55.908;37.880;2023-05-10T14:26:54;27.58;;;4.90;;
76589;SDS011;65471;55.908;37.880;2023-05-10T14:29:21;66.63;;;9.77;;
76589;SDS011;65471;55.908;37.880;2023-05-10T14:31:49;17.90;;;5.47;;
76589;SDS011;65471;55.908;37.880;2023-05-10T14:34:16;28.00;;;6.47;;
76589;SDS011;65471;55.908;37.880;2023-05-10T14:36:43;33.72;;;8.38;;
76589;SDS011;65471;55.908;37.880;2023-05-10T14:39:09;38.10;;;10.85;;
76589;SDS011;65471;55.908;37.880;2023-05-10T14:41:39;90.72;;;20.25;;
76589;SDS011;65471;55.908;37.880;2023-05-10T14:44:09;127.63;;;27.88;;
76589;SDS011;65471;55.908;37.880;2023-05-10T14:46:36;115.18;;;29.95;;
76589;SDS011;65471;55.908;37.880;2023-05-10T14:49:03;218.50;;;22.58;;
76589;SDS011;65471;55.908;37.880;2023-05-10T14:51:30;189.38;;;19.83;;
76589;SDS011;65471;55.908;37.880;2023-05-10T14:53:58;183.75;;;19.00;;
76589;SDS011;65471;55.908;37.880;2023-05-10T14:56:25;132.90;;;13.20;;
76589;SDS011;65471;55.908;37.880;2023-05-10T14:58:52;111.30;;;14.32;;
76589;SDS011;65471;55.908;37.880;2023-05-10T15:01:19;126.72;;;20.50;;
76589;SDS011;65471;55.908;37.880;2023-05-10T15:03:47;63.30;;;13.93;;
76589;SDS011;65471;55.908;37.880;2023-05-10T15:06:14;68.57;;;13.52;;
76589;SDS011;65471;55.908;37.880;2023-05-10T15:08:44;30.98;;;8.00;;
76589;SDS011;65471;55.908;37.880;2023-05-10T15:11:11;48.40;;;9.50;;
76589;SDS011;65471;55.908;37.880;2023-05-10T15:13:37;41.42;;;9.93;;
76589;SDS011;65471;55.908;37.880;2023-05-10T15:16:05;16.75;;;4.68;;
76589;SDS011;65471;55.908;37.880;2023-05-10T15:18:31;30.27;;;6.18;;
76589;SDS011;65471;55.908;37.880;2023-05-10T15:20:58;25.30;;;6.43;;
76589;SDS011;65471;55.908;37.880;2023-05-10T15:23:25;26.77;;;7.18;;